Time;durP1;ratioP1;P1;durP2;ratioP2;P2;SDS_P1;SDS_P2;PMS_P1;PMS_P2;Temp;Humidity;BMP_temperature;BMP_pressure;BME280_temperature;BME280_humidity;BME280_pressure;Samples;Min_cycle;Max_cycle;Signal;HPM_P1;HPM_P2
2023/06/18 00:00:57;;;;;;;28.77;16.23;;;15.30;99.90;;;;;;4964278;28;21450;-64
2023/06/18 00:03:24;;;;;;;33.53;15.82;;;15.40;99.90;;;;;;5014490;28;20671;-64
2023/06/18 00:05:52;;;;;;;30.98;15.10;;;15.40;99.90;;;;;;4996566;28;20221;-64
2023/06/18 00:08:19;;;;;;;20.50;13.00;;;15.40;99.90;;;;;;5013391;28;20252;-65
2023/06/18 00:10:46;;;;;;;24.23;13.15;;;15.50;99.90;;;;;;5008943;28;20199;-65
2023/06/18 00:13:13;;;;;;;29.17;14.18;;;15.50;99.90;;;;;;4999577;28;20210;-64
2023/06/18 00:15:41;;;;;;;27.30;14.73;;;15.60;99.90;;;;;;4975343;28;20206;-65
2023/06/18 00:18:08;;;;;;;33.45;15.00;;;15.60;99.90;;;;;;4994798;28;20213;-65
2023/06/18 00:20:34;;;;;;;27.10;14.02;;;15.50;99.90;;;;;;4995509;28;20667;-64
2023/06/18 00:23:01;;;;;;;23.15;10.48;;;15.60;99.90;;;;;;5006412;28;20206;-64
2023/06/18 00:25:29;;;;;;;15.80;10.43;;;15.50;99.90;;;;;;5008440;28;20226;-64
2023/06/18 00:27:56;;;;;;;13.13;9.43;;;14.90;99.90;;;;;;4995870;28;20677;-65
2023/06/18 00:30:23;;;;;;;21.30;8.50;;;15.40;99.90;;;;;;5004359;28;20672;-64
2023/06/18 00:32:51;;;;;;;28.08;9.32;;;16.10;99.90;;;;;;4969431;28;20455;-64
2023/06/18 00:35:18;;;;;;;20.95;10.38;;;15.10;99.90;;;;;;5007724;28;20195;-65
2023/06/18 00:37:45;;;;;;;22.92;10.40;;;15.10;99.90;;;;;;4993333;28;20217;-65
2023/06/18 00:40:12;;;;;;;14.35;9.55;;;15.10;99.90;;;;;;5008177;28;20745;-64
2023/06/18 00:42:40;;;;;;;52.85;9.57;;;14.90;99.90;;;;;;4999692;28;20205;-64
2023/06/18 00:45:09;;;;;;;23.70;9.80;;;15.00;99.90;;;;;;5011644;28;20222;-65
2023/06/18 00:47:36;;;;;;;24.48;10.48;;;15.00;99.90;;;;;;4977892;28;20297;-64
2023/06/18 00:50:05;;;;;;;11.05;9.70;;;14.80;99.90;;;;;;4997342;28;20285;-65
2023/06/18 00:52:35;;;;;;;36.40;12.15;;;14.90;99.90;;;;;;4994370;28;20202;-65
2023/06/18 00:55:03;;;;;;;24.83;12.85;;;14.70;99.90;;;;;;5010983;28;20194;-64
2023/06/18 00:57:31;;;;;;;27.95;13.60;;;14.70;99.90;;;;;;5010695;28;20213;-65
2023/06/18 00:59:58;;;;;;;23.58;12.73;;;14.60;99.90;;;;;;4998800;28;20202;-64
2023/06/18 01:02:25;;;;;;;23.65;14.07;;;14.60;99.90;;;;;;5002545;28;20218;-65
2023/06/18 01:04:55;;;;;;;16.13;12.52;;;14.60;99.90;;;;;;4973748;28;20233;-64
2023/06/18 01:07:24;;;;;;;16.85;12.60;;;14.60;99.90;;;;;;4991409;28;20840;-64
2023/06/18 01:09:53;;;;;;;16.23;11.50;;;14.80;99.90;;;;;;5001785;28;20978;-65
2023/06/18 01:12:21;;;;;;;17.60;12.10;;;14.70;99.90;;;;;;5007587;28;20213;-64
2023/06/18 01:14:50;;;;;;;19.15;13.50;;;14.70;99.90;;;;;;4993668;28;20245;-65
2023/06/18 01:17:19;;;;;;;17.63;12.27;;;14.70;99.90;;;;;;5002929;28;20206;-65
2023/06/18 01:19:49;;;;;;;16.75;12.57;;;14.80;99.90;;;;;;4969763;28;20217;-64
2023/06/18 01:22:37;;;;;;;19.55;14.15;;;14.80;99.90;;;;;;4994222;28;20202;-64
2023/06/18 01:25:06;;;;;;;18.60;14.48;;;14.80;99.90;;;;;;5008227;28;20272;-65
2023/06/18 01:27:34;;;;;;;22.33;13.75;;;14.80;99.90;;;;;;5006218;28;20571;-64
2023/06/18 01:30:03;;;;;;;23.27;14.50;;;14.80;99.90;;;;;;4998062;28;20202;-64
2023/06/18 01:32:30;;;;;;;20.45;13.70;;;14.70;99.90;;;;;;4994144;28;20282;-64
2023/06/18 01:34:57;;;;;;;24.50;14.15;;;14.60;99.90;;;;;;4971825;28;20217;-64
2023/06/18 01:37:37;;;;;;;23.65;13.93;;;14.60;99.90;;;;;;4989255;28;20194;-64
2023/06/18 01:40:12;;;;;;;21.25;13.88;;;14.50;99.90;;;;;;4993895;28;20202;-64
2023/06/18 01:42:44;;;;;;;21.60;12.30;;;14.60;99.90;;;;;;5004921;28;20194;-64
2023/06/18 01:45:16;;;;;;;30.27;12.98;;;14.60;99.90;;;;;;4997861;28;20229;-65
2023/06/18 01:47:45;;;;;;;25.42;11.77;;;14.60;99.90;;;;;;4990792;28;20217;-64
2023/06/18 01:50:14;;;;;;;19.30;11.80;;;14.50;99.90;;;;;;4972251;28;20395;-64
2023/06/18 01:52:45;;;;;;;21.73;11.68;;;14.50;99.90;;;;;;4993261;28;20213;-64
2023/06/18 01:55:14;;;;;;;22.30;13.73;;;14.60;99.90;;;;;;4992276;28;20288;-64
2023/06/18 01:57:41;;;;;;;30.38;16.13;;;14.50;99.90;;;;;;5009099;28;20209;-64
2023/06/18 02:00:10;;;;;;;32.38;15.65;;;14.30;99.90;;;;;;5008597;28;20307;-64
2023/06/18 02:02:36;;;;;;;52.25;16.95;;;14.10;99.90;;;;;;4997906;28;20229;-65
2023/06/18 02:05:03;;;;;;;48.08;17.60;;;13.90;99.90;;;;;;4974283;28;20539;-65
2023/06/18 02:07:30;;;;;;;41.25;16.85;;;13.90;99.90;;;;;;4994908;28;20440;-64
2023/06/18 02:09:58;;;;;;;35.85;18.02;;;13.90;99.90;;;;;;4994281;28;20567;-64
2023/06/18 02:12:25;;;;;;;27.52;16.48;;;14.20;99.90;;;;;;4993899;28;20205;-64
2023/06/18 02:14:52;;;;;;;30.98;17.33;;;14.30;99.90;;;;;;5004575;28;20214;-64
2023/06/18 02:17:18;;;;;;;30.30;17.83;;;14.40;99.90;;;;;;4997720;28;20957;-65
2023/06/18 02:19:45;;;;;;;30.77;18.58;;;14.40;99.90;;;;;;5011026;28;20202;-64
2023/06/18 02:22:12;;;;;;;30.58;19.48;;;14.50;99.90;;;;;;4963454;28;20210;-64
2023/06/18 02:24:39;;;;;;;31.77;17.63;;;14.60;99.90;;;;;;5008046;28;20513;-65
2023/06/18 02:27:07;;;;;;;38.00;20.13;;;14.60;99.90;;;;;;4994630;28;20205;-65
2023/06/18 02:29:34;;;;;;;33.83;19.25;;;14.60;99.90;;;;;;5010290;28;20198;-65
2023/06/18 02:32:01;;;;;;;31.92;18.27;;;14.70;99.90;;;;;;4999867;28;20205;-65
2023/06/18 02:34:28;;;;;;;31.65;17.88;;;14.70;99.90;;;;;;4997543;28;20203;-64
2023/06/18 02:36:55;;;;;;;80.97;20.92;;;14.70;99.90;;;;;;4978020;28;20211;-64
2023/06/18 02:39:22;;;;;;;41.05;20.00;;;14.60;99.90;;;;;;5001510;28;20210;-65
2023/06/18 02:41:49;;;;;;;34.40;19.50;;;14.70;99.90;;;;;;4994412;28;20202;-64
2023/06/18 02:44:18;;;;;;;46.67;19.42;;;14.70;99.90;;;;;;5004831;28;20333;-64
2023/06/18 02:46:44;;;;;;;54.13;20.95;;;14.70;99.90;;;;;;4997055;28;20575;-64
2023/06/18 02:49:11;;;;;;;96.55;19.23;;;14.80;99.90;;;;;;4997508;28;20198;-64
2023/06/18 02:51:38;;;;;;;76.22;20.42;;;14.60;99.90;;;;;;4976500;28;21023;-65
2023/06/18 02:54:05;;;;;;;33.38;19.80;;;14.60;99.90;;;;;;4996766;28;20689;-64
2023/06/18 02:56:32;;;;;;;32.15;20.23;;;14.80;99.90;;;;;;4989064;28;20900;-64
2023/06/18 02:58:59;;;;;;;54.85;21.63;;;14.60;99.90;;;;;;5006714;28;20754;-64
2023/06/18 03:01:27;;;;;;;88.05;20.75;;;14.80;99.90;;;;;;4987566;28;20420;-64
2023/06/18 03:03:54;;;;;;;82.68;20.98;;;14.80;99.90;;;;;;5003912;28;20222;-64
2023/06/18 03:06:23;;;;;;;118.07;20.15;;;14.90;99.90;;;;;;4991970;28;20228;-64
2023/06/18 03:08:50;;;;;;;107.90;18.77;;;14.80;99.90;;;;;;4975254;28;20923;-65
2023/06/18 03:11:17;;;;;;;132.30;18.23;;;14.70;99.90;;;;;;5005151;28;20205;-64
2023/06/18 03:13:44;;;;;;;81.70;18.17;;;14.80;99.90;;;;;;4991641;28;20206;-64
2023/06/18 03:16:10;;;;;;;41.03;16.40;;;14.70;99.90;;;;;;5000512;28;20291;-65
2023/06/18 03:18:38;;;;;;;30.08;15.00;;;14.70;99.90;;;;;;4996502;28;20299;-64
2023/06/18 03:21:05;;;;;;;48.30;13.70;;;14.80;99.90;;;;;;4995769;28;20194;-64
2023/06/18 03:23:32;;;;;;;36.10;13.75;;;14.70;99.90;;;;;;4969142;28;20210;-64
2023/06/18 03:25:59;;;;;;;18.65;12.82;;;14.70;99.90;;;;;;5005989;28;20228;-64
2023/06/18 03:28:25;;;;;;;31.65;13.95;;;15.20;99.90;;;;;;4990814;28;20213;-64
2023/06/18 03:30:52;;;;;;;16.88;12.95;;;14.70;99.90;;;;;;5001236;28;20205;-64
2023/06/18 03:33:21;;;;;;;15.02;10.95;;;14.70;99.90;;;;;;5002974;28;20202;-64
2023/06/18 03:35:51;;;;;;;13.65;11.68;;;14.80;99.90;;;;;;4998170;28;20209;-64
2023/06/18 03:38:18;;;;;;;19.52;11.60;;;14.80;99.90;;;;;;4975331;28;20675;-64
2023/06/18 03:40:45;;;;;;;34.10;11.65;;;14.80;99.90;;;;;;5008374;28;20201;-64
2023/06/18 03:43:11;;;;;;;16.15;11.02;;;14.70;99.90;;;;;;5002561;28;20680;-64
2023/06/18 03:45:38;;;;;;;12.38;10.98;;;14.70;99.90;;;;;;5001821;28;20341;-65
2023/06/18 03:48:05;;;;;;;12.10;10.55;;;14.70;99.90;;;;;;5010366;28;20786;-65
2023/06/18 03:50:32;;;;;;;15.02;10.30;;;14.70;99.90;;;;;;4997092;28;20779;-65
2023/06/18 03:53:01;;;;;;;19.13;10.10;;;14.70;99.90;;;;;;5008628;28;20565;-64
2023/06/18 03:55:27;;;;;;;25.42;9.55;;;14.70;99.90;;;;;;4974091;28;20315;-65
2023/06/18 03:57:54;;;;;;;18.77;10.18;;;14.70;99.90;;;;;;5003376;28;20987;-64
2023/06/18 04:00:21;;;;;;;23.33;9.10;;;14.60;99.90;;;;;;4993952;28;20213;-65
2023/06/18 04:02:48;;;;;;;19.45;10.43;;;14.70;99.90;;;;;;5005735;28;20233;-64
2023/06/18 04:05:15;;;;;;;18.17;10.32;;;14.60;99.90;;;;;;5007685;28;20202;-65
2023/06/18 04:07:41;;;;;;;10.90;9.77;;;14.70;99.90;;;;;;4993250;28;20230;-64
2023/06/18 04:10:10;;;;;;;21.13;10.50;;;14.60;99.90;;;;;;4977344;28;20209;-64
2023/06/18 04:12:37;;;;;;;11.13;9.93;;;14.50;99.90;;;;;;5003031;28;20221;-65
2023/06/18 04:15:04;;;;;;;12.07;10.18;;;14.60;99.90;;;;;;4996625;28;20198;-65
2023/06/18 04:17:39;;;;;;;15.10;10.13;;;14.60;99.90;;;;;;5006401;28;20201;-64
2023/06/18 04:20:08;;;;;;;13.15;10.85;;;14.50;99.90;;;;;;5008563;28;20216;-64
2023/06/18 04:22:34;;;;;;;12.43;10.63;;;14.50;99.90;;;;;;4994505;28;20213;-64
2023/06/18 04:25:01;;;;;;;12.18;10.82;;;14.60;99.90;;;;;;4977319;28;20338;-65
2023/06/18 04:27:29;;;;;;;12.43;10.50;;;14.60;99.90;;;;;;5009203;28;20229;-64
2023/06/18 04:29:56;;;;;;;13.45;11.52;;;14.40;99.90;;;;;;4992794;28;20206;-64
2023/06/18 04:32:23;;;;;;;14.32;11.68;;;14.40;99.90;;;;;;5009211;28;20190;-64
2023/06/18 04:34:50;;;;;;;13.20;11.63;;;14.40;99.90;;;;;;4995809;28;20210;-64
2023/06/18 04:37:16;;;;;;;15.77;11.85;;;14.50;99.90;;;;;;4995940;28;20209;-64
2023/06/18 04:39:43;;;;;;;14.77;12.57;;;14.30;99.90;;;;;;4973858;28;20210;-64
2023/06/18 04:42:11;;;;;;;15.48;12.32;;;14.30;99.90;;;;;;5007377;28;20558;-64
2023/06/18 04:44:39;;;;;;;20.63;13.38;;;14.20;99.90;;;;;;4992508;28;20277;-65
2023/06/18 04:47:06;;;;;;;15.35;12.90;;;14.30;99.90;;;;;;5005283;28;20225;-64
2023/06/18 04:49:33;;;;;;;15.68;13.18;;;14.30;99.90;;;;;;5002798;28;20194;-64
2023/06/18 04:52:00;;;;;;;15.52;12.60;;;14.30;99.90;;;;;;4998519;28;20297;-65
2023/06/18 04:54:27;;;;;;;14.20;12.70;;;14.40;99.90;;;;;;4989147;28;20202;-64
2023/06/18 04:56:57;;;;;;;14.40;12.45;;;14.40;99.90;;;;;;4984524;28;20295;-64
2023/06/18 04:59:24;;;;;;;15.80;12.15;;;14.40;99.90;;;;;;5007020;28;20205;-65
2023/06/18 05:01:52;;;;;;;20.33;15.48;;;14.40;99.90;;;;;;4989981;28;20638;-64
2023/06/18 05:04:19;;;;;;;18.17;15.25;;;14.50;99.90;;;;;;5009614;28;20573;-65
2023/06/18 05:06:46;;;;;;;19.15;14.68;;;14.50;99.90;;;;;;5001186;28;20238;-64
2023/06/18 05:09:13;;;;;;;17.58;14.65;;;14.50;99.90;;;;;;4995668;28;20221;-64
2023/06/18 05:11:40;;;;;;;19.48;14.73;;;14.60;99.90;;;;;;4959604;28;20349;-64
2023/06/18 05:14:07;;;;;;;24.27;16.33;;;14.60;99.90;;;;;;5007003;28;20194;-64
2023/06/18 05:16:34;;;;;;;22.90;15.27;;;14.70;99.90;;;;;;4993437;28;20754;-65
2023/06/18 05:19:03;;;;;;;23.77;15.73;;;14.80;99.90;;;;;;5006507;28;20495;-64
2023/06/18 05:21:30;;;;;;;28.15;16.40;;;14.90;99.90;;;;;;5007976;28;20198;-65
2023/06/18 05:23:57;;;;;;;22.23;16.95;;;;;;;;;;4992670;28;20287;-64
2023/06/18 05:26:24;;;;;;;25.38;15.77;;;15.10;99.90;;;;;;4980433;28;20230;-64
2023/06/18 05:28:51;;;;;;;21.50;15.00;;;15.10;99.90;;;;;;5005896;28;20878;-64
2023/06/18 05:31:17;;;;;;;17.92;15.05;;;15.30;99.90;;;;;;4996459;28;20218;-64
2023/06/18 05:33:44;;;;;;;19.95;15.30;;;15.30;99.90;;;;;;5006317;28;20198;-64
2023/06/18 05:36:12;;;;;;;18.92;14.73;;;15.40;99.90;;;;;;5004400;28;20210;-65
2023/06/18 05:38:39;;;;;;;18.88;14.85;;;15.50;99.90;;;;;;5008081;28;20194;-64
2023/06/18 05:41:06;;;;;;;19.70;15.48;;;15.50;99.90;;;;;;4998231;28;20228;-64
2023/06/18 05:43:33;;;;;;;21.67;15.57;;;15.60;99.90;;;;;;4975412;28;20210;-65
2023/06/18 05:46:00;;;;;;;17.95;15.27;;;15.70;99.90;;;;;;5007020;28;20850;-65
2023/06/18 05:48:27;;;;;;;23.52;15.75;;;15.80;99.90;;;;;;4993144;28;20218;-64
2023/06/18 05:50:53;;;;;;;19.77;15.23;;;15.90;99.90;;;;;;5003687;28;20393;-65
2023/06/18 05:53:21;;;;;;;20.88;16.55;;;16.00;99.90;;;;;;5011653;28;20901;-64
2023/06/18 05:55:48;;;;;;;19.70;15.18;;;16.10;99.90;;;;;;4995344;28;21711;-65
2023/06/18 05:58:15;;;;;;;20.20;15.63;;;16.20;99.90;;;;;;4974584;28;20209;-65
2023/06/18 06:00:42;;;;;;;22.00;15.95;;;16.40;99.90;;;;;;4997739;28;20218;-65
2023/06/18 06:03:10;;;;;;;19.13;15.85;;;16.50;99.90;;;;;;4985631;28;20230;-65
2023/06/18 06:05:37;;;;;;;23.88;16.30;;;16.50;99.90;;;;;;4999694;28;20209;-65
2023/06/18 06:08:06;;;;;;;19.17;15.95;;;16.50;99.90;;;;;;5001573;28;20244;-65
2023/06/18 06:10:36;;;;;;;16.67;14.80;;;16.70;99.90;;;;;;5002334;28;20202;-65
2023/06/18 06:13:03;;;;;;;18.80;15.50;;;16.70;99.90;;;;;;5002559;28;20321;-65
2023/06/18 06:15:30;;;;;;;20.98;15.30;;;16.80;99.90;;;;;;4973057;28;20300;-64
2023/06/18 06:17:57;;;;;;;20.17;15.63;;;17.00;99.90;;;;;;4982473;28;20425;-65
2023/06/18 06:20:23;;;;;;;16.70;14.27;;;17.00;99.90;;;;;;5003948;28;20198;-65
2023/06/18 06:22:51;;;;;;;17.45;14.82;;;17.20;99.90;;;;;;4998333;28;20244;-65
2023/06/18 06:25:17;;;;;;;19.33;15.20;;;17.20;99.90;;;;;;4992769;28;20409;-65
2023/06/18 06:27:46;;;;;;;18.00;14.57;;;17.30;99.90;;;;;;4991315;28;20225;-64
2023/06/18 06:30:13;;;;;;;21.00;15.10;;;17.40;99.90;;;;;;4969630;28;20919;-65
2023/06/18 06:32:40;;;;;;;18.45;14.02;;;17.50;98.80;;;;;;4989416;28;20400;-65
2023/06/18 06:35:07;;;;;;;17.23;14.43;;;17.60;98.90;;;;;;5005805;28;20206;-65
2023/06/18 06:37:34;;;;;;;16.02;13.82;;;17.60;99.00;;;;;;5007566;28;20311;-64
2023/06/18 06:40:02;;;;;;;19.63;15.48;;;;;;;;;;4984764;28;20364;-64
2023/06/18 06:42:29;;;;;;;19.40;15.32;;;17.70;96.10;;;;;;4984659;28;20226;-65
2023/06/18 06:44:57;;;;;;;17.33;14.77;;;17.70;96.20;;;;;;4966345;28;20226;-65
2023/06/18 06:47:24;;;;;;;17.80;13.95;;;17.80;95.60;;;;;;4975674;28;20598;-65
2023/06/18 06:49:51;;;;;;;17.90;14.52;;;17.90;95.60;;;;;;5009074;28;20267;-65
2023/06/18 06:52:18;;;;;;;17.05;14.30;;;18.00;94.80;;;;;;4994325;28;20328;-65
2023/06/18 06:54:46;;;;;;;19.98;16.33;;;18.00;95.10;;;;;;5006424;28;20426;-65
2023/06/18 06:57:14;;;;;;;18.00;14.80;;;18.10;95.10;;;;;;4986128;28;20344;-65
2023/06/18 06:59:40;;;;;;;21.95;14.98;;;18.20;94.20;;;;;;4986123;28;20432;-65
2023/06/18 07:02:09;;;;;;;17.67;14.77;;;18.30;92.20;;;;;;4958481;28;20234;-65
2023/06/18 07:04:35;;;;;;;18.17;14.85;;;18.00;91.00;;;;;;4984901;28;20311;-65
2023/06/18 07:07:02;;;;;;;17.85;14.88;;;18.40;88.60;;;;;;4990938;28;20331;-65
2023/06/18 07:09:29;;;;;;;18.52;14.82;;;18.40;89.30;;;;;;5001998;28;20537;-65
2023/06/18 07:11:56;;;;;;;15.10;12.82;;;18.50;90.00;;;;;;4993975;28;20348;-65
2023/06/18 07:14:23;;;;;;;16.13;12.98;;;18.60;84.10;;;;;;4985520;28;20299;-65
2023/06/18 07:16:50;;;;;;;18.25;13.70;;;18.60;84.50;;;;;;4975830;28;20348;-65
2023/06/18 07:19:18;;;;;;;17.60;13.10;;;18.80;77.50;;;;;;4998954;28;20738;-65
2023/06/18 07:21:45;;;;;;;14.27;12.30;;;18.80;77.80;;;;;;5000674;28;20245;-65
2023/06/18 07:24:12;;;;;;;13.93;11.77;;;19.20;73.90;;;;;;5009544;28;20234;-65
2023/06/18 07:26:38;;;;;;;13.05;11.43;;;18.90;69.30;;;;;;4997576;28;23189;-65
2023/06/18 07:29:05;;;;;;;12.07;10.23;;;18.90;69.50;;;;;;4993030;28;20789;-65
2023/06/18 07:31:36;;;;;;;15.77;10.43;;;19.10;58.80;;;;;;4974803;28;20529;-65
2023/06/18 07:34:03;;;;;;;11.98;9.95;;;19.10;57.90;;;;;;4990409;28;20309;-65
2023/06/18 07:36:31;;;;;;;11.82;10.15;;;19.20;51.20;;;;;;5002038;28;20530;-65
2023/06/18 07:38:58;;;;;;;12.23;10.05;;;19.20;49.20;;;;;;5011762;28;20668;-65
2023/06/18 07:41:25;;;;;;;12.02;8.43;;;19.30;41.90;;;;;;4994420;28;20233;-65
2023/06/18 07:43:52;;;;;;;9.00;7.15;;;19.40;15.80;;;;;;4995372;28;20210;-65
2023/06/18 07:46:19;;;;;;;11.18;7.28;;;19.50;1.00;;;;;;4981807;28;20284;-65
2023/06/18 07:48:45;;;;;;;11.13;7.28;;;19.50;1.00;;;;;;4998093;28;20295;-65
2023/06/18 07:51:12;;;;;;;10.60;7.38;;;19.60;1.00;;;;;;4988494;28;20312;-65
2023/06/18 07:53:41;;;;;;;9.50;7.30;;;19.60;1.00;;;;;;5000875;28;20202;-65
2023/06/18 07:56:07;;;;;;;12.45;7.22;;;19.70;1.00;;;;;;5006511;28;20997;-65
2023/06/18 07:58:34;;;;;;;11.77;8.73;;;19.90;1.00;;;;;;4988834;28;20296;-65
2023/06/18 08:01:01;;;;;;;9.35;7.88;;;20.00;1.00;;;;;;4992977;28;20231;-65
2023/06/18 08:03:28;;;;;;;10.63;8.45;;;20.00;1.00;;;;;;4948623;28;20325;-65
2023/06/18 08:05:55;;;;;;;10.38;7.72;;;20.00;1.00;;;;;;4986699;28;20304;-65
2023/06/18 08:08:22;;;;;;;11.07;7.93;;;20.00;1.00;;;;;;4987056;28;22843;-64
2023/06/18 08:10:50;;;;;;;11.40;8.38;;;20.10;1.00;;;;;;5000646;28;21290;-65
2023/06/18 08:13:17;;;;;;;10.95;7.25;;;20.20;1.00;;;;;;4984611;28;20218;-65
2023/06/18 08:15:44;;;;;;;8.80;7.53;;;20.20;1.00;;;;;;4987429;28;20560;-65
2023/06/18 08:18:11;;;;;;;8.75;6.82;;;20.20;1.00;;;;;;4966260;28;20255;-65
2023/06/18 08:20:37;;;;;;;10.38;7.80;;;20.30;1.00;;;;;;4988098;28;20633;-65
2023/06/18 08:23:04;;;;;;;14.55;6.72;;;20.40;1.00;;;;;;4990075;28;20289;-65
2023/06/18 08:25:31;;;;;;;13.95;7.00;;;20.40;1.00;;;;;;5000261;28;20430;-65
2023/06/18 08:28:00;;;;;;;8.40;5.80;;;20.50;1.00;;;;;;4996028;28;20329;-65
2023/06/18 08:30:28;;;;;;;8.95;6.50;;;20.60;1.00;;;;;;4987911;28;20198;-65
2023/06/18 08:32:56;;;;;;;9.32;6.63;;;;;;;;;;4959802;28;20443;-66
2023/06/18 08:35:23;;;;;;;9.07;5.68;;;20.60;99.90;;;;;;5005180;28;20218;-65
2023/06/18 08:37:50;;;;;;;7.00;5.50;;;20.60;99.90;;;;;;4984569;28;20221;-65
2023/06/18 08:40:21;;;;;;;5.93;5.30;;;20.80;99.90;;;;;;4990233;28;20615;-65
2023/06/18 08:42:48;;;;;;;6.13;4.90;;;20.90;99.90;;;;;;5003676;28;20365;-65
2023/06/18 08:45:16;;;;;;;6.80;4.95;;;21.10;99.90;;;;;;4986404;28;20222;-65
2023/06/18 08:47:48;;;;;;;9.52;4.90;;;21.10;99.90;;;;;;4995062;28;20345;-65
2023/06/18 08:50:19;;;;;;;12.55;4.80;;;21.10;99.90;;;;;;4968745;28;20229;-65
2023/06/18 08:52:50;;;;;;;7.53;4.78;;;21.10;99.90;;;;;;4988631;28;20198;-65
2023/06/18 08:55:17;;;;;;;6.05;5.15;;;21.10;99.90;;;;;;4985930;28;20773;-65
2023/06/18 08:57:51;;;;;;;5.72;5.07;;;21.20;99.90;;;;;;4992238;28;20226;-65
2023/06/18 09:00:20;;;;;;;4.97;4.40;;;21.20;99.90;;;;;;4977800;28;20282;-65
2023/06/18 09:02:47;;;;;;;9.25;5.22;;;21.40;99.90;;;;;;4986935;28;20317;-64
2023/06/18 09:05:15;;;;;;;9.57;4.82;;;21.40;99.90;;;;;;4972062;28;20281;-65
2023/06/18 09:07:42;;;;;;;7.78;5.05;;;21.50;99.90;;;;;;4988173;28;21054;-65
2023/06/18 09:10:10;;;;;;;6.47;5.05;;;21.50;99.90;;;;;;4982907;28;21087;-65
2023/06/18 09:12:37;;;;;;;10.50;4.85;;;21.60;99.90;;;;;;4998115;28;20245;-65
2023/06/18 09:15:05;;;;;;;5.13;4.40;;;21.60;99.90;;;;;;4983817;28;21209;-65
2023/06/18 09:17:35;;;;;;;4.20;3.67;;;21.60;99.90;;;;;;4993436;28;20312;-65
2023/06/18 09:20:03;;;;;;;6.25;4.07;;;21.80;99.90;;;;;;4955114;28;20223;-65
2023/06/18 09:22:30;;;;;;;6.85;4.18;;;22.00;99.90;;;;;;4971965;28;20284;-65
2023/06/18 09:24:58;;;;;;;4.30;3.90;;;22.00;99.90;;;;;;4984903;28;20521;-65
2023/06/18 09:27:32;;;;;;;5.57;3.75;;;22.00;99.90;;;;;;4997417;28;20233;-65
2023/06/18 09:29:59;;;;;;;5.55;4.05;;;22.00;99.90;;;;;;4978732;28;20214;-65
2023/06/18 09:32:25;;;;;;;10.68;3.67;;;22.00;99.90;;;;;;4985946;28;20240;-65
2023/06/18 09:34:54;;;;;;;5.18;3.65;;;22.10;99.90;;;;;;4947276;28;22031;-65
2023/06/18 09:37:21;;;;;;;3.92;3.63;;;22.10;99.90;;;;;;4988585;28;20367;-66
2023/06/18 09:39:51;;;;;;;4.43;4.03;;;22.10;99.90;;;;;;4968053;28;20895;-65
2023/06/18 09:42:18;;;;;;;4.78;4.22;;;22.90;99.90;;;;;;4996442;28;20214;-65
2023/06/18 09:44:46;;;;;;;4.18;3.78;;;22.40;99.90;;;;;;4970165;28;20392;-66
2023/06/18 09:47:15;;;;;;;3.90;3.53;;;22.40;99.90;;;;;;4998080;28;20648;-65
2023/06/18 09:49:45;;;;;;;4.22;3.85;;;22.40;99.90;;;;;;4961509;28;22255;-66
2023/06/18 09:52:13;;;;;;;6.40;3.85;;;22.50;99.90;;;;;;4996211;28;20811;-66
2023/06/18 09:54:42;;;;;;;6.10;4.38;;;22.50;99.90;;;;;;4969549;28;20264;-66
2023/06/18 09:57:11;;;;;;;3.90;3.50;;;22.40;99.90;;;;;;4963872;28;20360;-65
2023/06/18 09:59:38;;;;;;;6.95;3.83;;;22.80;99.90;;;;;;4986275;28;20679;-65
2023/06/18 10:02:06;;;;;;;6.28;3.65;;;23.00;99.90;;;;;;4975437;28;20229;-65
2023/06/18 10:04:33;;;;;;;3.70;3.40;;;23.10;99.90;;;;;;4971060;28;20590;-65
2023/06/18 10:07:03;;;;;;;3.80;3.50;;;23.00;99.90;;;;;;4959837;28;20325;-65
2023/06/18 10:09:33;;;;;;;3.97;3.55;;;23.10;99.90;;;;;;4976399;28;20413;-66
2023/06/18 10:12:01;;;;;;;4.07;3.67;;;23.20;99.90;;;;;;4975234;28;20368;-65
2023/06/18 10:14:29;;;;;;;4.80;3.50;;;23.40;99.90;;;;;;4974324;28;20202;-66
2023/06/18 10:17:05;;;;;;;3.95;3.55;;;23.40;99.90;;;;;;4965359;28;20320;-64
2023/06/18 10:19:37;;;;;;;7.25;3.42;;;23.50;99.90;;;;;;4974371;28;20233;-67
2023/06/18 10:22:05;;;;;;;5.03;4.53;;;23.70;99.90;;;;;;4963848;28;20363;-64
2023/06/18 10:24:39;;;;;;;8.25;3.90;;;23.70;99.90;;;;;;4985454;28;20335;-64
2023/06/18 10:27:07;;;;;;;5.55;4.00;;;23.60;99.90;;;;;;4977376;28;20396;-65
2023/06/18 10:29:35;;;;;;;4.45;3.92;;;23.70;99.90;;;;;;4981819;28;20229;-65
2023/06/18 10:32:03;;;;;;;5.68;4.05;;;23.70;99.90;;;;;;4975960;28;20348;-64
2023/06/18 10:34:30;;;;;;;4.95;3.70;;;23.70;99.90;;;;;;5000190;28;20497;-64
2023/06/18 10:36:59;;;;;;;4.88;3.78;;;23.70;99.90;;;;;;4976312;28;20230;-65
2023/06/18 10:39:27;;;;;;;5.15;3.40;;;23.70;99.90;;;;;;4985118;28;20257;-65
2023/06/18 10:41:55;;;;;;;4.30;3.40;;;23.80;99.90;;;;;;4988435;28;20646;-64
2023/06/18 10:44:49;;;;;;;4.18;3.78;;;24.00;99.90;;;;;;4990071;28;20206;-64
2023/06/18 10:47:20;;;;;;;3.42;3.13;;;24.00;99.90;;;;;;4979282;28;22114;-65
2023/06/18 10:50:16;;;;;;;4.00;3.60;;;24.10;99.90;;;;;;4996946;28;20806;-64
2023/06/18 10:52:44;;;;;;;6.72;4.03;;;24.10;99.90;;;;;;4966306;28;20209;-64
2023/06/18 10:55:13;;;;;;;4.85;4.45;;;24.10;99.90;;;;;;4982901;28;20214;-65
2023/06/18 10:57:43;;;;;;;6.50;4.20;;;24.10;99.90;;;;;;4987872;28;21427;-65
2023/06/18 11:00:21;;;;;;;6.75;4.45;;;24.00;99.90;;;;;;4994305;28;20786;-65
2023/06/18 11:02:56;;;;;;;5.18;3.85;;;24.10;99.90;;;;;;4962366;28;20867;-65
2023/06/18 11:05:43;;;;;;;4.50;4.10;;;24.20;99.90;;;;;;4995724;28;20286;-65
2023/06/18 11:08:11;;;;;;;4.90;4.20;;;24.20;99.90;;;;;;4950503;28;20230;-65
2023/06/18 11:10:39;;;;;;;4.75;4.20;;;24.40;99.90;;;;;;4973468;28;20883;-64
2023/06/18 11:13:08;;;;;;;3.92;3.53;;;24.50;99.90;;;;;;4993371;28;20297;-65
2023/06/18 11:15:36;;;;;;;4.47;3.78;;;24.90;99.90;;;;;;4974941;28;20942;-65
2023/06/18 11:18:03;;;;;;;4.57;3.92;;;24.90;99.90;;;;;;4988976;28;20742;-65
2023/06/18 11:20:32;;;;;;;4.32;3.60;;;25.00;99.90;;;;;;4962650;28;20619;-65
2023/06/18 11:23:00;;;;;;;6.45;3.65;;;25.00;99.90;;;;;;4937433;28;21334;-65
2023/06/18 11:25:28;;;;;;;3.75;3.45;;;25.00;99.90;;;;;;4984034;28;20289;-65
2023/06/18 11:27:58;;;;;;;3.80;3.42;;;24.90;99.90;;;;;;4982449;28;20408;-65
2023/06/18 11:30:26;;;;;;;4.25;3.40;;;24.80;99.90;;;;;;4985634;28;20252;-65
2023/06/18 11:32:53;;;;;;;5.35;4.03;;;24.70;99.90;;;;;;4973951;28;20201;-65
2023/06/18 11:35:20;;;;;;;4.95;4.00;;;24.70;99.90;;;;;;4990424;28;21019;-65
2023/06/18 11:37:47;;;;;;;4.03;3.63;;;24.80;99.90;;;;;;4967221;28;20293;-65
2023/06/18 11:40:14;;;;;;;3.90;3.50;;;24.60;99.90;;;;;;4972205;28;20710;-65
2023/06/18 11:42:49;;;;;;;5.88;3.65;;;24.70;99.90;;;;;;4991119;28;20325;-65
2023/06/18 11:45:16;;;;;;;4.95;3.90;;;24.70;99.90;;;;;;4984456;28;20418;-65
2023/06/18 11:47:48;;;;;;;6.68;4.10;;;24.60;99.90;;;;;;5001540;28;20277;-65
2023/06/18 11:50:15;;;;;;;4.35;3.92;;;24.70;99.90;;;;;;4964219;28;20226;-65
2023/06/18 11:52:43;;;;;;;7.75;3.78;;;24.80;99.90;;;;;;4987509;28;20719;-65
2023/06/18 11:55:10;;;;;;;4.32;3.40;;;24.80;99.90;;;;;;4945271;28;20206;-65
2023/06/18 11:57:37;;;;;;;4.82;3.42;;;24.80;99.90;;;;;;4985696;28;20237;-65
2023/06/18 12:00:08;;;;;;;3.50;3.20;;;24.80;99.90;;;;;;4991551;28;20297;-65
2023/06/18 12:02:38;;;;;;;5.55;3.80;;;24.70;99.90;;;;;;4998687;28;21013;-65
2023/06/18 12:05:08;;;;;;;3.83;3.42;;;24.70;99.90;;;;;;4976657;28;20230;-65
2023/06/18 12:07:39;;;;;;;4.95;3.97;;;24.70;99.90;;;;;;4973151;28;20740;-66
2023/06/18 12:10:09;;;;;;;4.35;3.95;;;24.70;99.90;;;;;;4935294;28;20228;-66
2023/06/18 12:12:45;;;;;;;7.63;4.03;;;24.70;99.90;;;;;;4982150;28;20226;-65
2023/06/18 12:15:19;;;;;;;6.07;4.63;;;24.70;99.90;;;;;;4954141;28;20226;-67
2023/06/18 12:17:56;;;;;;;4.43;3.65;;;24.70;99.90;;;;;;5000908;28;20224;-66
2023/06/18 12:20:27;;;;;;;4.82;3.72;;;24.80;99.90;;;;;;4987172;28;20220;-67
2023/06/18 12:22:54;;;;;;;4.95;3.55;;;24.80;99.90;;;;;;4974850;28;20602;-66
2023/06/18 12:25:23;;;;;;;6.38;3.85;;;24.80;99.90;;;;;;4960514;28;20571;-66
2023/06/18 12:27:51;;;;;;;5.00;3.75;;;24.90;99.90;;;;;;4987933;28;20233;-65
2023/06/18 12:30:19;;;;;;;4.43;3.70;;;24.90;99.90;;;;;;4965858;28;20554;-66
2023/06/18 12:33:01;;;;;;;5.10;3.72;;;24.90;99.90;;;;;;5001818;28;20272;-66
2023/06/18 12:35:30;;;;;;;5.40;3.80;;;24.90;99.90;;;;;;4993991;28;20221;-66
2023/06/18 12:38:03;;;;;;;5.53;3.67;;;24.80;99.90;;;;;;4977786;28;20297;-65
2023/06/18 12:40:31;;;;;;;9.13;4.00;;;24.90;99.90;;;;;;4971008;28;20210;-65